createdAt,value
2022-08-12T00:00:30.244Z,0.00
2022-08-12T00:02:02.905Z,0.00
2022-08-12T00:02:31.244Z,0.00
2022-08-12T00:03:30.277Z,0.00
2022-08-12T00:04:30.201Z,0.00
2022-08-12T00:05:30.223Z,0.00
2022-08-12T00:06:30.180Z,0.00
2022-08-12T00:07:31.194Z,0.00
2022-08-12T00:08:35.844Z,0.00
2022-08-12T00:09:31.169Z,0.00
2022-08-12T00:10:30.164Z,0.00
2022-08-12T00:11:30.154Z,0.00
2022-08-12T00:12:30.192Z,0.00
2022-08-12T00:13:30.128Z,0.00
2022-08-12T00:14:30.140Z,0.00
2022-08-12T00:15:30.109Z,0.00
2022-08-12T00:16:30.120Z,0.00
2022-08-12T00:17:30.099Z,0.00
2022-08-12T00:18:30.121Z,0.00
2022-08-12T00:19:30.069Z,0.00
2022-08-12T00:20:30.067Z,0.00
2022-08-12T00:21:30.108Z,0.00
2022-08-12T00:22:30.117Z,0.00
2022-08-12T00:23:30.035Z,0.00
2022-08-12T00:24:30.018Z,0.00
2022-08-12T00:25:51.250Z,0.00
2022-08-12T00:26:31.016Z,0.00
2022-08-12T00:27:44.040Z,0.00
2022-08-12T00:28:31.047Z,0.00
2022-08-12T00:29:29.992Z,0.00
2022-08-12T00:30:29.972Z,0.00
2022-08-12T00:31:29.973Z,0.00
2022-08-12T00:32:54.287Z,0.00
2022-08-12T00:33:36.445Z,0.00
2022-08-12T00:34:30.931Z,0.00
2022-08-12T00:35:36.420Z,0.00
2022-08-12T00:36:34.850Z,0.00
2022-08-12T00:37:30.918Z,0.00
2022-08-12T00:38:29.882Z,0.00
2022-08-12T00:39:30.917Z,0.00
2022-08-12T00:40:29.912Z,0.00
2022-08-12T00:41:29.885Z,0.00
2022-08-12T00:42:29.875Z,0.00
2022-08-12T00:43:29.832Z,0.00
2022-08-12T00:44:29.867Z,0.00
2022-08-12T00:45:29.837Z,0.00
2022-08-12T00:46:29.812Z,0.00
2022-08-12T00:47:29.835Z,0.00
2022-08-12T00:48:29.837Z,0.00
2022-08-12T00:49:29.799Z,0.00
2022-08-12T00:50:29.817Z,0.00
2022-08-12T00:51:29.779Z,0.00
2022-08-12T00:52:29.782Z,0.00
2022-08-12T00:53:29.790Z,0.00
2022-08-12T00:54:29.743Z,0.00
2022-08-12T00:55:29.731Z,0.00
2022-08-12T00:56:29.722Z,0.00
2022-08-12T00:57:29.730Z,0.00
2022-08-12T00:58:29.717Z,0.00
2022-08-12T00:59:29.687Z,0.00
2022-08-12T01:00:29.704Z,0.00
2022-08-12T01:01:29.694Z,0.00
2022-08-12T01:02:30.723Z,0.00
2022-08-12T01:03:30.657Z,0.00
2022-08-12T01:04:29.633Z,0.00
2022-08-12T01:05:29.630Z,0.00
2022-08-12T01:06:29.619Z,0.00
2022-08-12T01:07:29.627Z,0.00
2022-08-12T01:08:29.619Z,0.00
2022-08-12T01:09:29.589Z,0.00
2022-08-12T01:10:32.650Z,0.00
2022-08-12T01:11:29.581Z,0.00
2022-08-12T01:12:29.590Z,0.00
2022-08-12T01:13:29.583Z,0.00
2022-08-12T01:14:29.571Z,0.00
2022-08-12T01:15:29.554Z,0.00
2022-08-12T01:16:29.538Z,0.00
2022-08-12T01:17:29.559Z,0.00
2022-08-12T01:18:29.513Z,0.00
2022-08-12T01:19:29.503Z,0.00
2022-08-12T01:20:29.513Z,0.00
2022-08-12T01:21:29.485Z,0.00
2022-08-12T01:22:29.464Z,0.00
2022-08-12T01:23:29.462Z,0.00
2022-08-12T01:24:31.532Z,0.00
2022-08-12T01:25:29.452Z,0.00
2022-08-12T01:26:29.454Z,0.00
2022-08-12T01:27:29.405Z,0.00
2022-08-12T01:28:29.425Z,0.00
2022-08-12T01:29:32.584Z,0.00
2022-08-12T01:30:29.434Z,0.00
2022-08-12T01:31:29.472Z,0.00
2022-08-12T01:32:29.365Z,0.00
2022-08-12T01:33:29.373Z,0.00
2022-08-12T01:34:36.843Z,0.00
2022-08-12T01:35:30.349Z,0.00
2022-08-12T01:36:29.334Z,0.00
2022-08-12T01:37:29.284Z,0.00
2022-08-12T01:38:29.574Z,0.00
2022-08-12T01:39:29.381Z,0.00
2022-08-12T01:40:33.564Z,0.00
2022-08-12T01:41:30.295Z,0.00
2022-08-12T01:42:29.280Z,0.00
2022-08-12T01:43:29.285Z,0.00
2022-08-12T01:44:29.249Z,0.00
2022-08-12T01:45:29.264Z,0.00
2022-08-12T01:46:30.244Z,0.00
2022-08-12T01:47:29.239Z,0.00
2022-08-12T01:48:29.228Z,0.00
2022-08-12T01:49:29.222Z,0.00
2022-08-12T01:50:29.189Z,0.00
2022-08-12T01:52:20.996Z,0.00
2022-08-12T01:52:30.176Z,0.00
2022-08-12T01:53:29.187Z,0.00
2022-08-12T01:54:30.148Z,0.00
2022-08-12T01:55:29.128Z,0.00
2022-08-12T01:56:29.149Z,0.00
2022-08-12T01:57:59.822Z,0.00
2022-08-12T01:58:30.150Z,0.00
2022-08-12T01:59:29.102Z,0.00
2022-08-12T02:00:36.022Z,0.00
2022-08-12T02:01:30.145Z,0.00
2022-08-12T02:02:29.076Z,0.00
2022-08-12T02:03:29.076Z,0.00
2022-08-12T02:04:29.075Z,0.00
2022-08-12T02:05:29.045Z,0.00
2022-08-12T02:06:29.047Z,0.00
2022-08-12T02:07:29.024Z,0.00
2022-08-12T02:08:29.048Z,0.00
2022-08-12T02:09:28.995Z,0.00
2022-08-12T02:10:49.302Z,0.00
2022-08-12T02:11:29.980Z,0.00
2022-08-12T02:12:31.378Z,0.00
2022-08-12T02:13:42.086Z,0.00
2022-08-12T02:14:29.953Z,0.00
2022-08-12T02:15:28.935Z,0.00
2022-08-12T02:16:28.948Z,0.00
2022-08-12T02:17:55.180Z,0.00
2022-08-12T02:18:29.933Z,0.00
2022-08-12T02:19:28.921Z,0.00
2022-08-12T02:20:35.232Z,0.00
2022-08-12T02:21:29.869Z,0.00
2022-08-12T02:22:28.910Z,0.00
2022-08-12T02:23:28.893Z,0.00
2022-08-12T02:24:28.870Z,0.00
2022-08-12T02:25:28.838Z,0.00
2022-08-12T02:26:28.850Z,0.00
2022-08-12T02:27:28.824Z,0.00
2022-08-12T02:28:28.817Z,0.00
2022-08-12T02:29:28.825Z,0.00
2022-08-12T02:30:41.698Z,0.00
2022-08-12T02:31:29.800Z,0.00
2022-08-12T02:32:28.778Z,0.00
2022-08-12T02:33:28.774Z,0.00
2022-08-12T02:34:28.787Z,0.00
2022-08-12T02:35:28.772Z,0.00
2022-08-12T02:36:28.772Z,0.00
2022-08-12T02:37:28.749Z,0.00
2022-08-12T02:38:28.747Z,0.00
2022-08-12T02:39:28.740Z,0.00
2022-08-12T02:40:29.718Z,0.00
2022-08-12T02:41:28.693Z,0.00
2022-08-12T02:42:28.701Z,0.00
2022-08-12T02:43:28.681Z,0.00
2022-08-12T02:44:28.688Z,0.00
2022-08-12T02:45:28.643Z,0.00
2022-08-12T02:46:28.636Z,0.00
2022-08-12T02:47:59.230Z,0.00
2022-08-12T02:48:29.660Z,0.00
2022-08-12T02:49:28.628Z,0.00
2022-08-12T02:50:28.604Z,0.00
2022-08-12T02:51:28.582Z,0.00
2022-08-12T02:52:28.587Z,0.00
2022-08-12T02:53:28.613Z,0.00
2022-08-12T02:54:28.566Z,0.00
2022-08-12T02:55:34.305Z,0.00
2022-08-12T02:56:29.585Z,0.00
2022-08-12T02:57:28.522Z,0.00
2022-08-12T02:58:32.890Z,0.00
2022-08-12T02:59:29.512Z,0.00
2022-08-12T03:00:28.521Z,0.00
2022-08-12T03:01:28.617Z,0.00
2022-08-12T03:02:28.472Z,0.00
2022-08-12T03:03:28.520Z,0.00
2022-08-12T03:04:28.497Z,0.00
2022-08-12T03:05:28.457Z,0.00
2022-08-12T03:06:28.471Z,0.00
2022-08-12T03:07:39.691Z,0.00
2022-08-12T03:08:32.409Z,0.00
2022-08-12T03:09:29.961Z,0.00
2022-08-12T03:10:37.694Z,0.00
2022-08-12T03:11:29.392Z,0.00
2022-08-12T03:12:33.694Z,0.00
2022-08-12T03:13:29.379Z,0.00
2022-08-12T03:14:28.373Z,0.00
2022-08-12T03:15:28.347Z,0.00
2022-08-12T03:16:28.338Z,0.00
2022-08-12T03:17:28.349Z,0.00
2022-08-12T03:18:28.935Z,0.00
2022-08-12T03:19:28.327Z,0.00
2022-08-12T03:20:28.628Z,0.00
2022-08-12T03:21:52.817Z,0.00
2022-08-12T03:22:29.259Z,0.00
2022-08-12T03:23:30.301Z,0.00
2022-08-12T03:24:28.272Z,0.00
2022-08-12T03:25:28.259Z,0.00
2022-08-12T03:26:28.246Z,0.00
2022-08-12T03:27:28.202Z,0.00
2022-08-12T03:28:28.208Z,0.00
2022-08-12T03:29:28.243Z,0.00
2022-08-12T03:30:28.190Z,0.00
2022-08-12T03:31:28.185Z,0.00
2022-08-12T03:32:36.221Z,4.00
2022-08-12T03:33:29.154Z,0.00
2022-08-12T03:34:29.169Z,0.00
2022-08-12T03:35:40.066Z,4.00
2022-08-12T03:36:29.143Z,0.00
2022-08-12T03:37:28.151Z,4.00
2022-08-12T03:38:28.161Z,4.00
2022-08-12T03:39:36.475Z,4.00
2022-08-12T03:40:29.133Z,4.00
2022-08-12T03:41:28.109Z,4.00
2022-08-12T03:42:28.286Z,8.00
2022-08-12T03:43:28.085Z,8.00
2022-08-12T03:44:28.075Z,8.00
2022-08-12T03:45:28.047Z,12.00
2022-08-12T03:46:28.056Z,12.00
2022-08-12T03:47:28.035Z,16.00
2022-08-12T03:48:28.017Z,16.00
2022-08-12T03:49:28.039Z,20.00
2022-08-12T03:50:27.999Z,20.00
2022-08-12T03:51:28.006Z,24.00
2022-08-12T03:52:27.977Z,32.00
2022-08-12T03:53:27.970Z,32.00
2022-08-12T03:54:27.975Z,36.00
2022-08-12T03:55:27.956Z,44.00
2022-08-12T03:56:27.942Z,48.00
2022-08-12T03:57:27.929Z,56.00
2022-08-12T03:58:27.928Z,60.00
2022-08-12T03:59:27.938Z,72.00
2022-08-12T04:00:27.883Z,76.00
2022-08-12T04:01:27.966Z,84.00
2022-08-12T04:02:27.909Z,96.00
2022-08-12T04:03:27.882Z,104.00
2022-08-12T04:04:27.896Z,112.00
2022-08-12T04:05:54.618Z,120.00
2022-08-12T04:06:35.287Z,132.00
2022-08-12T04:07:28.846Z,148.00
2022-08-12T04:08:27.813Z,156.00
2022-08-12T04:09:27.812Z,168.00
2022-08-12T04:10:27.807Z,180.00
2022-08-12T04:11:32.041Z,200.00
2022-08-12T04:12:32.442Z,212.00
2022-08-12T04:13:31.877Z,224.00
2022-08-12T04:14:27.763Z,240.00
2022-08-12T04:15:33.425Z,256.00
2022-08-12T04:16:32.995Z,272.00
2022-08-12T04:17:31.763Z,292.00
2022-08-12T04:18:30.169Z,304.00
2022-08-12T04:19:30.188Z,324.00
2022-08-12T04:20:30.433Z,336.00
2022-08-12T04:21:32.078Z,356.00
2022-08-12T04:22:27.687Z,376.00
2022-08-12T04:23:27.689Z,392.00
2022-08-12T04:24:27.699Z,408.00
2022-08-12T04:25:27.671Z,424.00
2022-08-12T04:26:27.675Z,448.00
2022-08-12T04:27:27.640Z,464.00
2022-08-12T04:28:27.625Z,480.00
2022-08-12T04:30:29.263Z,504.00
2022-08-12T04:30:32.063Z,520.00
2022-08-12T04:31:28.589Z,536.00
2022-08-12T04:32:27.597Z,556.00
2022-08-12T04:33:27.571Z,576.00
2022-08-12T04:34:27.587Z,600.00
2022-08-12T04:35:27.574Z,620.00
2022-08-12T04:36:27.541Z,648.00
2022-08-12T04:37:27.547Z,672.00
2022-08-12T04:38:27.556Z,696.00
2022-08-12T04:39:27.553Z,720.00
2022-08-12T04:40:28.438Z,744.00
2022-08-12T04:41:27.498Z,772.00
2022-08-12T04:42:27.477Z,800.00
2022-08-12T04:44:00.725Z,832.00
2022-08-12T04:44:28.478Z,864.00
2022-08-12T04:45:27.450Z,892.00
2022-08-12T04:46:33.548Z,924.00
2022-08-12T04:47:29.583Z,952.00
2022-08-12T04:48:27.524Z,980.00
2022-08-12T04:49:28.836Z,1012.00
2022-08-12T04:50:34.913Z,1040.00
2022-08-12T04:51:28.359Z,1068.00
2022-08-12T04:52:30.655Z,1100.00
2022-08-12T04:53:28.353Z,1132.00
2022-08-12T04:54:27.379Z,1160.00
2022-08-12T04:55:27.361Z,1188.00
2022-08-12T04:56:27.368Z,1224.00
2022-08-12T04:57:28.308Z,1264.00
2022-08-12T04:58:29.342Z,1300.00
2022-08-12T04:59:27.314Z,1336.00
2022-08-12T05:00:27.288Z,1372.00
2022-08-12T05:01:28.297Z,1408.00
2022-08-12T05:02:27.301Z,1444.00
2022-08-12T05:03:27.259Z,1480.00
2022-08-12T05:04:27.276Z,1516.00
2022-08-12T05:05:27.272Z,1552.00
2022-08-12T05:06:27.262Z,1588.00
2022-08-12T05:07:27.241Z,1624.00
2022-08-12T05:08:27.209Z,1664.00
2022-08-12T05:09:27.213Z,1696.00
2022-08-12T05:10:33.859Z,1732.00
2022-08-12T05:11:28.180Z,1764.00
2022-08-12T05:12:27.207Z,1800.00
2022-08-12T05:13:27.163Z,1836.00
2022-08-12T05:14:27.175Z,1876.00
2022-08-12T05:15:29.135Z,1916.00
2022-08-12T05:16:30.940Z,1956.00
2022-08-12T05:17:28.486Z,2000.00
2022-08-12T05:18:29.264Z,2044.00
2022-08-12T05:19:27.102Z,2096.00
2022-08-12T05:20:27.096Z,2140.00
2022-08-12T05:21:27.087Z,2184.00
2022-08-12T05:22:27.082Z,2232.00
2022-08-12T05:23:27.054Z,2280.00
2022-08-12T05:24:27.051Z,2328.00
2022-08-12T05:25:27.039Z,2372.00
2022-08-12T05:26:27.035Z,2416.00
2022-08-12T05:27:27.044Z,2460.00
2022-08-12T05:28:27.353Z,2508.00
2022-08-12T05:30:07.906Z,2548.00
2022-08-12T05:30:27.996Z,2588.00
2022-08-12T05:31:40.363Z,2636.00
2022-08-12T05:32:27.972Z,2676.00
2022-08-12T05:33:26.927Z,2720.00
2022-08-12T05:34:26.959Z,2760.00
2022-08-12T05:35:26.935Z,2804.00
2022-08-12T05:36:26.928Z,2844.00
2022-08-12T05:37:26.923Z,2876.00
2022-08-12T05:38:26.900Z,2916.00
2022-08-12T05:39:26.961Z,2956.00
2022-08-12T05:40:26.863Z,2992.00
2022-08-12T05:41:26.848Z,3036.00
2022-08-12T05:42:31.088Z,3084.00
2022-08-12T05:43:27.841Z,3136.00
2022-08-12T05:44:26.830Z,3176.00
2022-08-12T05:45:26.857Z,3224.00
2022-08-12T05:46:26.869Z,3264.00
2022-08-12T05:47:44.851Z,3308.00
2022-08-12T05:48:27.802Z,3368.00
2022-08-12T05:49:26.785Z,3416.00
2022-08-12T05:50:26.793Z,3460.00
2022-08-12T05:51:40.673Z,3500.00
2022-08-12T05:52:27.913Z,3540.00
2022-08-12T05:53:26.778Z,3580.00
2022-08-12T05:54:41.115Z,3612.00
2022-08-12T05:55:31.330Z,3648.00
2022-08-12T05:56:27.710Z,3680.00
2022-08-12T05:57:26.700Z,3716.00
2022-08-12T05:58:26.709Z,3748.00
2022-08-12T05:59:26.701Z,3780.00
2022-08-12T06:00:26.680Z,3816.00
2022-08-12T06:02:11.981Z,3856.00
2022-08-12T06:02:28.213Z,3888.00
2022-08-12T06:03:26.631Z,3924.00
2022-08-12T06:04:26.616Z,3964.00
2022-08-12T06:05:26.606Z,3996.00
2022-08-12T06:06:27.817Z,4036.00
2022-08-12T06:08:00.311Z,4068.00
2022-08-12T06:08:27.567Z,4100.00
2022-08-12T06:09:26.553Z,4136.00
2022-08-12T06:10:32.401Z,4164.00
2022-08-12T06:11:27.515Z,4204.00
2022-08-12T06:12:27.517Z,4232.00
2022-08-12T06:13:52.552Z,4268.00
2022-08-12T06:14:27.492Z,4300.00
2022-08-12T06:15:26.500Z,4328.00
2022-08-12T06:16:26.549Z,4360.00
2022-08-12T06:17:26.483Z,4392.00
2022-08-12T06:18:29.788Z,4420.00
2022-08-12T06:20:22.846Z,4456.00
2022-08-12T06:20:30.212Z,4484.00
2022-08-12T06:21:27.465Z,4516.00
2022-08-12T06:22:36.765Z,4552.00
2022-08-12T06:23:26.431Z,4588.00
2022-08-12T06:24:26.445Z,4624.00
2022-08-12T06:25:26.515Z,4660.00
2022-08-12T06:26:26.407Z,4688.00
2022-08-12T06:28:10.446Z,4720.00
2022-08-12T06:28:27.382Z,4748.00
2022-08-12T06:30:09.343Z,4780.00
2022-08-12T06:30:36.838Z,4812.00
2022-08-12T06:31:28.453Z,4840.00
2022-08-12T06:32:27.701Z,4860.00
2022-08-12T06:33:55.346Z,4892.00
2022-08-12T06:35:26.181Z,4916.00
2022-08-12T06:35:48.209Z,4944.00
2022-08-12T06:36:29.882Z,4968.00
2022-08-12T06:37:26.316Z,4992.00
2022-08-12T06:38:26.302Z,5012.00
2022-08-12T06:44:05.124Z,5148.00
2022-08-12T06:44:53.288Z,5160.00
2022-08-12T06:45:52.296Z,5188.00
2022-08-12T06:46:54.184Z,5208.00
2022-08-12T06:48:04.257Z,5224.00
2022-08-12T06:49:05.403Z,5252.00
2022-08-12T06:50:02.813Z,5264.00
2022-08-12T06:51:56.833Z,5296.00
2022-08-12T06:52:52.204Z,5316.00
2022-08-12T06:53:52.189Z,5340.00
2022-08-12T06:54:52.198Z,5348.00
2022-08-12T06:56:16.279Z,5356.00
2022-08-12T06:58:29.852Z,5400.00
2022-08-12T06:59:27.860Z,5412.00
2022-08-12T07:00:32.450Z,5416.00
2022-08-12T07:01:31.620Z,5424.00
2022-08-12T07:02:29.394Z,5436.00
2022-08-12T07:03:37.289Z,5452.00
2022-08-12T07:04:37.479Z,5456.00
2022-08-12T07:05:35.217Z,5468.00
2022-08-12T07:06:27.691Z,5484.00
2022-08-12T07:07:27.665Z,5508.00
2022-08-12T07:08:27.651Z,5516.00
2022-08-12T07:10:00.008Z,5532.00
2022-08-12T07:10:28.632Z,5540.00
2022-08-12T07:11:28.213Z,5552.00
2022-08-12T07:12:28.071Z,5564.00
2022-08-12T07:13:27.691Z,5580.00
2022-08-12T07:14:27.724Z,5588.00
2022-08-12T07:15:35.050Z,5596.00
2022-08-12T07:16:36.668Z,5612.00
2022-08-12T07:17:34.461Z,5624.00
2022-08-12T07:18:37.150Z,5640.00
2022-08-12T07:19:40.638Z,5648.00
2022-08-12T07:21:59.697Z,5664.00
2022-08-12T07:22:38.363Z,5680.00
2022-08-12T07:24:39.932Z,5692.00
2022-08-12T07:25:41.197Z,5700.00
2022-08-12T07:26:36.864Z,5696.00
2022-08-12T07:28:28.704Z,5712.00
2022-08-12T07:30:00.075Z,5712.00
2022-08-12T07:30:29.432Z,5712.00
2022-08-12T07:31:27.669Z,5720.00
2022-08-12T07:32:35.878Z,5728.00
2022-08-12T07:33:35.956Z,5732.00
2022-08-12T07:34:36.697Z,5732.00
2022-08-12T07:35:41.567Z,5732.00
2022-08-12T07:36:28.433Z,5736.00
2022-08-12T07:37:27.450Z,5744.00
2022-08-12T07:38:33.356Z,5748.00
2022-08-12T07:39:35.880Z,5756.00
2022-08-12T07:40:33.826Z,5760.00
2022-08-12T07:41:30.167Z,5764.00
2022-08-12T07:42:28.183Z,5768.00
2022-08-12T07:43:36.410Z,5768.00
2022-08-12T07:44:28.318Z,5768.00
2022-08-12T07:45:35.013Z,5772.00
2022-08-12T07:46:27.287Z,5780.00
2022-08-12T07:47:27.266Z,5788.00
2022-08-12T07:48:27.273Z,5788.00
2022-08-12T07:49:27.263Z,5784.00
2022-08-12T07:50:27.237Z,5796.00
2022-08-12T07:51:27.247Z,5796.00
2022-08-12T07:52:27.343Z,5796.00
2022-08-12T07:53:27.234Z,5804.00
2022-08-12T07:54:27.197Z,5816.00
2022-08-12T07:55:27.183Z,5816.00
2022-08-12T07:56:27.195Z,5828.00
2022-08-12T07:57:27.167Z,5840.00
2022-08-12T07:58:27.179Z,5844.00
2022-08-12T07:59:27.141Z,5848.00
2022-08-12T08:00:27.129Z,5856.00
2022-08-12T08:01:27.202Z,5864.00
2022-08-12T08:02:27.349Z,5876.00
2022-08-12T08:03:27.109Z,5884.00
2022-08-12T08:04:27.085Z,5888.00
2022-08-12T08:05:27.094Z,5900.00
2022-08-12T08:06:27.081Z,5908.00
2022-08-12T08:07:27.082Z,5916.00
2022-08-12T08:08:27.057Z,5920.00
2022-08-12T08:09:27.041Z,5932.00
2022-08-12T08:10:27.043Z,5932.00
2022-08-12T08:11:27.018Z,5936.00
2022-08-12T08:12:27.175Z,5936.00
2022-08-12T08:13:27.119Z,5940.00
2022-08-12T08:14:27.017Z,5948.00
2022-08-12T08:15:51.158Z,5956.00
2022-08-12T08:16:32.988Z,5968.00
2022-08-12T08:17:28.051Z,5960.00
2022-08-12T08:18:27.842Z,5960.00
2022-08-12T08:19:29.000Z,5972.00
2022-08-12T08:20:29.205Z,5972.00
2022-08-12T08:21:27.177Z,5972.00
2022-08-12T08:22:40.780Z,5968.00
2022-08-12T08:23:37.832Z,5976.00
2022-08-12T08:24:40.384Z,5984.00
2022-08-12T08:25:35.704Z,5984.00
2022-08-12T08:26:27.876Z,5988.00
2022-08-12T08:27:29.200Z,5992.00
2022-08-12T08:28:26.865Z,5996.00
2022-08-12T08:29:27.890Z,6000.00
2022-08-12T08:30:26.873Z,6004.00
2022-08-12T08:31:26.830Z,6000.00
2022-08-12T08:32:26.843Z,5992.00
2022-08-12T08:34:08.935Z,6008.00
2022-08-12T10:14:34.428Z,5808.00
2022-08-12T10:15:15.260Z,5796.00
2022-08-12T10:16:18.686Z,5776.00
2022-08-12T10:17:13.452Z,5784.00
2022-08-12T10:18:12.629Z,5764.00
2022-08-12T10:19:17.351Z,5740.00
2022-08-12T10:20:13.416Z,5704.00
2022-08-12T10:21:12.399Z,5728.00
2022-08-12T10:22:16.969Z,5708.00
2022-08-12T10:23:13.377Z,5728.00
2022-08-12T10:24:12.384Z,5740.00
2022-08-12T10:25:17.373Z,5728.00
2022-08-12T10:26:35.053Z,5716.00
2022-08-12T10:27:15.782Z,5708.00
2022-08-12T10:28:22.129Z,5712.00
2022-08-12T10:30:01.337Z,5700.00
2022-08-12T10:30:41.428Z,5684.00
2022-08-12T10:31:16.390Z,5692.00
2022-08-12T10:32:20.894Z,5680.00
2022-08-12T10:33:18.165Z,5664.00
2022-08-12T10:34:26.125Z,5644.00
2022-08-12T10:35:14.691Z,5680.00
2022-08-12T10:36:12.245Z,5668.00
2022-08-12T10:38:05.748Z,5636.00
2022-08-12T10:38:39.192Z,5648.00
2022-08-12T10:39:59.982Z,5648.00
2022-08-12T10:40:19.239Z,5644.00
2022-08-12T10:41:19.061Z,5656.00
2022-08-12T10:42:13.233Z,5624.00
2022-08-12T10:43:12.210Z,5612.00
2022-08-12T10:44:12.398Z,5620.00
2022-08-12T10:45:18.066Z,5608.00
2022-08-12T10:46:13.319Z,5572.00
2022-08-12T10:48:01.622Z,5548.00
2022-08-12T10:48:21.469Z,5540.00
2022-08-12T10:50:06.950Z,5548.00
2022-08-12T10:50:28.600Z,5564.00
2022-08-12T10:52:34.393Z,5572.00
2022-08-12T10:53:19.437Z,5556.00
2022-08-12T10:54:13.166Z,5568.00
2022-08-12T10:55:13.237Z,5556.00
2022-08-12T10:56:12.049Z,5568.00
2022-08-12T10:57:18.505Z,5552.00
2022-08-12T10:58:30.974Z,5520.00
2022-08-12T10:59:15.595Z,5508.00
2022-08-12T11:00:34.375Z,5508.00
2022-08-12T11:01:49.096Z,5528.00
2022-08-12T11:04:23.558Z,5520.00
2022-08-12T11:04:25.740Z,5528.00
2022-08-12T11:04:31.477Z,5524.00
2022-08-12T11:07:06.815Z,5504.00
2022-08-12T11:07:08.363Z,5520.00
2022-08-12T11:08:33.907Z,5504.00
2022-08-12T11:08:37.619Z,5508.00
2022-08-12T11:09:13.035Z,5520.00
2022-08-12T11:10:11.950Z,5536.00
2022-08-12T11:11:13.689Z,5552.00
2022-08-12T11:12:55.609Z,5576.00
2022-08-12T11:13:12.872Z,5596.00
2022-08-12T11:14:47.966Z,5596.00
2022-08-12T11:15:33.220Z,5548.00
2022-08-12T11:16:22.130Z,5536.00
2022-08-12T11:17:43.028Z,5484.00
2022-08-12T11:18:18.311Z,5504.00
2022-08-12T11:19:11.833Z,5492.00
2022-08-12T11:20:20.740Z,5488.00
2022-08-12T11:21:15.791Z,5492.00
2022-08-12T11:22:12.953Z,5512.00
2022-08-12T11:23:26.031Z,5512.00
2022-08-12T11:24:30.648Z,5472.00
2022-08-12T11:25:16.628Z,5480.00
2022-08-12T11:26:12.902Z,5508.00
2022-08-12T11:27:26.270Z,5496.00
2022-08-12T11:28:20.606Z,5460.00
2022-08-12T11:29:22.349Z,5456.00
2022-08-12T11:30:31.081Z,5500.00
2022-08-12T11:32:02.451Z,5548.00
2022-08-12T11:32:22.454Z,5556.00
2022-08-12T11:35:20.110Z,5556.00
2022-08-12T11:35:23.065Z,5488.00
2022-08-12T11:36:22.713Z,5548.00
2022-08-12T11:37:26.407Z,5620.00
2022-08-12T11:38:22.455Z,5640.00
2022-08-12T11:40:23.556Z,5712.00
2022-08-12T11:41:31.363Z,5732.00
2022-08-12T11:43:18.987Z,5656.00
2022-08-12T11:43:26.212Z,5624.00
2022-08-12T11:44:35.278Z,5676.00
2022-08-12T11:47:19.723Z,5672.00
2022-08-12T11:47:21.203Z,5696.00
2022-08-12T11:48:26.915Z,5780.00
2022-08-12T11:49:30.764Z,5824.00
2022-08-12T11:50:23.863Z,5860.00
2022-08-12T11:51:22.195Z,5876.00
2022-08-12T11:52:54.918Z,5916.00
2022-08-12T11:53:58.282Z,5928.00
2022-08-12T11:54:22.184Z,5916.00
2022-08-12T11:55:23.173Z,5912.00
2022-08-12T11:56:21.330Z,5912.00
2022-08-12T11:58:09.538Z,5864.00
2022-08-12T12:00:16.838Z,5828.00
2022-08-12T12:02:00.955Z,5796.00
2022-08-12T12:02:04.803Z,5840.00
2022-08-12T12:02:25.983Z,5796.00
2022-08-12T12:03:23.138Z,5808.00
2022-08-12T12:04:28.991Z,5756.00
2022-08-12T12:05:22.128Z,5740.00
2022-08-12T12:06:22.537Z,5692.00
2022-08-12T12:07:21.253Z,5708.00
2022-08-12T12:08:37.393Z,5728.00
2022-08-12T12:09:24.678Z,5692.00
2022-08-12T12:10:29.228Z,5672.00
2022-08-12T12:11:23.128Z,5652.00
2022-08-12T12:12:21.441Z,5644.00
2022-08-12T12:13:23.287Z,5672.00
2022-08-12T12:14:37.801Z,5648.00
2022-08-12T12:15:24.666Z,5624.00
2022-08-12T12:16:21.013Z,5604.00
2022-08-12T12:17:21.000Z,5584.00
2022-08-12T12:18:22.478Z,5632.00
2022-08-12T12:19:21.977Z,5640.00
2022-08-12T12:20:20.963Z,5652.00
2022-08-12T12:21:47.589Z,5700.00
2022-08-12T12:22:26.783Z,5768.00
2022-08-12T12:23:29.157Z,5876.00
2022-08-12T12:24:22.529Z,5964.00
2022-08-12T12:25:20.923Z,6056.00
2022-08-12T12:26:35.259Z,6100.00
2022-08-12T12:27:59.305Z,6140.00
2022-08-12T12:28:38.143Z,6108.00
2022-08-12T12:30:20.000Z,6112.00
2022-08-12T12:30:37.471Z,6072.00
2022-08-12T12:32:11.622Z,5968.00
2022-08-12T12:32:29.342Z,5900.00
2022-08-12T12:33:21.892Z,5848.00
2022-08-12T12:34:30.169Z,5792.00
2022-08-12T12:36:06.473Z,5768.00
2022-08-12T12:36:29.770Z,5776.00
2022-08-12T12:38:03.308Z,5824.00
2022-08-12T12:38:25.170Z,5828.00
2022-08-12T12:39:21.873Z,5748.00
2022-08-12T12:40:21.230Z,5712.00
2022-08-12T12:41:20.759Z,5672.00
2022-08-12T12:42:42.889Z,5680.00
2022-08-12T12:43:28.399Z,5588.00
2022-08-12T12:44:26.002Z,5540.00
2022-08-12T12:45:26.041Z,3508.00
2022-08-12T12:46:20.772Z,3492.00
2022-08-12T12:47:47.693Z,5356.00
2022-08-12T12:48:33.258Z,5364.00
2022-08-12T14:57:05.798Z,2968.00
2022-08-12T14:57:23.458Z,2980.00
2022-08-12T15:08:13.279Z,2704.00
2022-08-12T15:09:19.122Z,2688.00
2022-08-12T15:10:06.010Z,2656.00
2022-08-12T15:11:21.695Z,2612.00
2022-08-12T15:20:28.353Z,2460.00
2022-08-12T15:20:37.540Z,2428.00
2022-08-12T15:21:16.232Z,2424.00
2022-08-12T15:22:38.382Z,2392.00
2022-08-12T15:23:21.619Z,2372.00
2022-08-12T15:24:15.456Z,2360.00
2022-08-12T15:25:28.678Z,2360.00
2022-08-12T15:26:20.647Z,2320.00
2022-08-12T15:27:15.208Z,2288.00
2022-08-12T15:28:21.559Z,2280.00
2022-08-12T15:29:16.948Z,2256.00
2022-08-12T15:30:15.118Z,2220.00
2022-08-12T15:31:27.533Z,2212.00
2022-08-12T15:32:16.294Z,2192.00
2022-08-12T15:33:20.911Z,2184.00
2022-08-12T15:34:16.059Z,2180.00
2022-08-12T15:35:15.048Z,2164.00
2022-08-12T15:36:19.509Z,2156.00
2022-08-12T15:37:22.832Z,2140.00
2022-08-12T15:38:19.469Z,2140.00
2022-08-12T15:39:16.414Z,2132.00
2022-08-12T15:40:15.059Z,2124.00
2022-08-12T15:41:55.460Z,2096.00
2022-08-12T15:42:21.835Z,2116.00
2022-08-12T15:44:16.019Z,2084.00
2022-08-12T15:44:38.353Z,2080.00
2022-08-12T15:45:32.171Z,2068.00
2022-08-12T15:46:28.049Z,2056.00
2022-08-12T15:47:16.359Z,2040.00
2022-08-12T15:48:20.279Z,2044.00
2022-08-12T15:49:54.984Z,2036.00
2022-08-12T15:50:26.729Z,2032.00
2022-08-12T15:51:15.970Z,2040.00
2022-08-12T15:52:19.152Z,2028.00
2022-08-12T15:53:15.876Z,2016.00
2022-08-12T15:54:34.275Z,2008.00
2022-08-12T15:55:16.811Z,1996.00
2022-08-12T15:56:14.844Z,1984.00
2022-08-12T15:57:17.129Z,1976.00
2022-08-12T15:58:16.742Z,1956.00
2022-08-12T15:59:14.817Z,1944.00
2022-08-12T16:00:22.461Z,1932.00
2022-08-12T16:01:15.878Z,1932.00
2022-08-12T16:02:14.801Z,1936.00
2022-08-12T16:03:25.618Z,1920.00
2022-08-12T16:04:17.104Z,1896.00
2022-08-12T16:06:10.478Z,1888.00
2022-08-12T16:06:31.179Z,1876.00
2022-08-12T16:07:15.747Z,1868.00
2022-08-12T16:08:21.187Z,1856.00
2022-08-12T16:09:15.713Z,1848.00
2022-08-12T16:10:15.742Z,1836.00
2022-08-12T16:11:18.803Z,1824.00
2022-08-12T16:12:14.873Z,1820.00
2022-08-12T16:13:14.680Z,1804.00
2022-08-12T16:14:14.662Z,1796.00
2022-08-12T16:15:14.655Z,1792.00
2022-08-12T16:16:23.631Z,1776.00
2022-08-12T16:17:15.852Z,1760.00
2022-08-12T16:18:19.650Z,1752.00
2022-08-12T16:19:19.049Z,1748.00
2022-08-12T16:20:15.609Z,1752.00
2022-08-12T16:21:52.391Z,1732.00
2022-08-12T16:22:15.610Z,1720.00
2022-08-12T16:23:26.218Z,1720.00
2022-08-12T16:24:15.567Z,1708.00
2022-08-12T16:25:22.531Z,1704.00
2022-08-12T16:26:20.459Z,1684.00
2022-08-12T16:27:15.554Z,1676.00
2022-08-12T16:28:14.535Z,1660.00
2022-08-12T16:29:16.234Z,1644.00
2022-08-12T16:30:14.514Z,1640.00
2022-08-12T16:31:22.612Z,1640.00
2022-08-12T16:32:15.506Z,1644.00
2022-08-12T16:33:14.487Z,1624.00
2022-08-12T16:34:26.035Z,1612.00
2022-08-12T16:35:16.174Z,1596.00
2022-08-12T16:36:18.775Z,1592.00
2022-08-12T16:37:14.575Z,1580.00
2022-08-12T16:38:27.775Z,1580.00
2022-08-12T16:39:15.617Z,1576.00
2022-08-12T16:40:15.539Z,1568.00
2022-08-12T16:41:15.547Z,1560.00
2022-08-12T16:42:15.570Z,1544.00
2022-08-12T16:43:15.519Z,1548.00
2022-08-12T16:44:19.496Z,1528.00
2022-08-12T16:45:15.525Z,1516.00
2022-08-12T16:46:31.165Z,1512.00
2022-08-12T16:47:16.503Z,1508.00